createdAt,value
2019-06-10T00:03:20.590Z,5.70
2019-06-10T00:08:16.292Z,6.08
2019-06-10T00:13:12.235Z,5.97
2019-06-10T00:18:33.506Z,6.17
2019-06-10T00:23:06.851Z,6.70
2019-06-10T00:28:05.434Z,6.12
2019-06-10T00:33:03.157Z,6.50
2019-06-10T00:37:59.581Z,6.67
2019-06-10T00:42:56.094Z,6.70
2019-06-10T00:48:06.664Z,6.85
2019-06-10T00:52:51.520Z,6.03
2019-06-10T00:57:47.033Z,6.47
2019-06-10T01:02:42.745Z,6.73
2019-06-10T01:07:38.452Z,6.43
2019-06-10T01:12:34.134Z,7.03
2019-06-10T01:17:31.115Z,6.90
2019-06-10T01:22:27.216Z,6.80
2019-06-10T01:27:22.938Z,7.00
2019-06-10T01:32:18.668Z,6.60
2019-06-10T01:37:14.811Z,6.90
2019-06-10T01:42:13.977Z,7.57
2019-06-10T01:47:12.683Z,6.67
2019-06-10T01:52:07.285Z,6.83
2019-06-10T01:57:03.139Z,7.30
2019-06-10T02:02:03.655Z,7.77
2019-06-10T02:07:01.297Z,6.37
2019-06-10T02:11:57.280Z,6.83
2019-06-10T02:16:52.997Z,6.43
2019-06-10T02:21:50.932Z,7.23
2019-06-10T02:26:46.614Z,7.00
2019-06-10T02:31:43.449Z,7.30
2019-06-10T02:36:39.447Z,6.93
2019-06-10T02:41:36.581Z,6.50
2019-06-10T02:46:36.028Z,7.00
2019-06-10T02:51:31.348Z,7.87
2019-06-10T02:56:31.085Z,7.10
2019-06-10T03:01:32.173Z,7.53
2019-06-10T03:06:29.798Z,7.60
2019-06-10T03:11:27.332Z,7.40
2019-06-10T03:16:26.428Z,7.23
2019-06-10T03:21:24.219Z,7.63
2019-06-10T03:26:21.894Z,7.17
2019-06-10T03:31:18.818Z,7.10
2019-06-10T03:36:16.172Z,7.10
2019-06-10T03:41:12.557Z,7.67
2019-06-10T03:46:08.435Z,7.73
2019-06-10T03:51:04.159Z,8.27
2019-06-10T03:56:02.062Z,7.17
2019-06-10T04:00:57.678Z,7.37
2019-06-10T04:05:53.396Z,7.57
2019-06-10T04:10:49.103Z,7.00
2019-06-10T04:15:44.842Z,7.53
2019-06-10T04:20:42.830Z,7.40
2019-06-10T04:25:42.610Z,7.30
2019-06-10T04:30:37.787Z,8.90
2019-06-10T04:35:33.759Z,8.97
2019-06-10T04:40:29.625Z,9.33
2019-06-10T04:45:26.509Z,9.30
2019-06-10T04:50:33.118Z,9.37
2019-06-10T04:55:23.173Z,9.47
2019-06-10T05:00:19.154Z,9.47
2019-06-10T05:05:15.106Z,9.07
2019-06-10T05:10:12.421Z,8.55
2019-06-10T05:15:08.583Z,8.97
2019-06-10T05:20:05.046Z,8.60
2019-06-10T05:25:02.461Z,7.95
2019-06-10T05:29:58.522Z,7.72
2019-06-10T05:34:54.244Z,9.00
2019-06-10T05:39:49.964Z,8.68
2019-06-10T05:44:45.678Z,8.60
2019-06-10T05:49:43.099Z,8.33
2019-06-10T05:54:38.976Z,8.75
2019-06-10T05:59:35.996Z,8.50
2019-06-10T06:04:33.944Z,9.15
2019-06-10T06:09:29.407Z,7.95
2019-06-10T06:14:25.880Z,8.55
2019-06-10T06:19:23.189Z,8.78
2019-06-10T06:24:18.999Z,8.53
2019-06-10T06:29:14.825Z,7.40
2019-06-10T06:34:13.409Z,7.90
2019-06-10T06:39:08.164Z,7.65
2019-06-10T06:44:04.316Z,7.80
2019-06-10T06:49:01.978Z,8.03
2019-06-10T06:53:57.634Z,8.93
2019-06-10T06:58:53.435Z,9.10
2019-06-10T07:03:49.188Z,8.48
2019-06-10T07:09:00.383Z,8.48
2019-06-10T07:13:45.546Z,7.87
2019-06-10T07:18:49.065Z,8.80
2019-06-10T07:23:41.104Z,8.33
2019-06-10T07:28:38.411Z,9.25
2019-06-10T07:33:37.150Z,8.43
2019-06-10T07:38:34.041Z,8.10
2019-06-10T07:43:29.154Z,7.78
2019-06-10T07:48:24.865Z,7.65
2019-06-10T07:53:22.264Z,8.18
2019-06-10T07:58:18.206Z,7.47
2019-06-10T08:03:13.996Z,7.70
2019-06-10T08:08:09.712Z,8.33
2019-06-10T08:13:05.529Z,8.58
2019-06-10T08:18:04.145Z,8.30
2019-06-10T08:22:58.910Z,6.35
2019-06-10T08:27:54.923Z,7.25
2019-06-10T08:32:55.140Z,7.20
2019-06-10T08:37:48.271Z,6.72
2019-06-10T08:42:46.635Z,6.50
2019-06-10T08:47:44.308Z,5.67
2019-06-10T08:52:56.933Z,5.70
2019-06-10T08:57:38.397Z,5.35
2019-06-10T09:02:34.702Z,5.72
2019-06-10T09:07:32.308Z,5.65
2019-06-10T09:12:33.164Z,4.90
2019-06-10T09:17:26.290Z,4.75
2019-06-10T09:22:23.606Z,4.42
2019-06-10T09:27:19.554Z,4.17
2019-06-10T09:32:15.573Z,4.10
2019-06-10T09:37:12.456Z,4.28
2019-06-10T09:42:08.312Z,3.80
2019-06-10T09:47:04.552Z,4.20
2019-06-10T09:52:03.126Z,4.00
2019-06-10T09:56:57.862Z,3.95
2019-06-10T10:02:00.044Z,4.05
2019-06-10T10:06:57.179Z,4.35
2019-06-10T10:11:51.341Z,3.87
2019-06-10T10:16:52.161Z,3.50
2019-06-10T10:21:49.445Z,3.45
2019-06-10T10:26:46.712Z,2.95
2019-06-10T10:31:43.425Z,2.90
2019-06-10T10:36:38.407Z,2.80
2019-06-10T10:41:34.431Z,3.42
2019-06-10T10:46:32.596Z,3.45
2019-06-10T10:51:28.448Z,3.37
2019-06-10T10:56:24.254Z,3.35
2019-06-10T11:01:23.184Z,3.50
2019-06-10T11:06:18.317Z,2.98
2019-06-10T11:11:14.523Z,3.30
2019-06-10T11:16:10.239Z,3.08
2019-06-10T11:21:05.977Z,3.15
2019-06-10T11:26:02.172Z,2.90
2019-06-10T11:30:58.668Z,2.95
2019-06-10T11:35:56.975Z,3.00
2019-06-10T11:40:54.967Z,2.67
2019-06-10T11:45:55.071Z,2.80
2019-06-10T11:50:49.154Z,2.80
2019-06-10T11:55:45.142Z,3.15
2019-06-10T12:00:42.658Z,2.87
2019-06-10T12:05:38.481Z,2.72
2019-06-10T12:10:34.217Z,2.80
2019-06-10T12:15:34.770Z,2.67
2019-06-10T12:20:28.562Z,2.80
2019-06-10T12:25:32.624Z,2.80
2019-06-10T12:30:22.432Z,3.02
2019-06-10T12:35:18.828Z,2.95
2019-06-10T12:40:15.022Z,2.98
2019-06-10T12:45:12.766Z,3.20
2019-06-10T12:50:12.136Z,3.12
2019-06-10T12:55:08.394Z,3.10
2019-06-10T13:00:19.228Z,3.52
2019-06-10T13:05:08.686Z,3.52
2019-06-10T13:10:05.723Z,2.92
2019-06-10T13:15:04.997Z,3.05
2019-06-10T13:20:01.232Z,3.62
2019-06-10T13:24:58.634Z,3.40
2019-06-10T13:29:56.227Z,3.27
2019-06-10T13:34:52.781Z,3.33
2019-06-10T13:39:48.902Z,3.17
2019-06-10T13:44:44.641Z,3.58
2019-06-10T13:49:42.689Z,4.92
2019-06-10T13:54:37.926Z,3.75
2019-06-10T13:59:33.673Z,3.55
2019-06-10T14:04:29.384Z,3.40
2019-06-10T14:09:25.371Z,3.22
2019-06-10T14:14:22.993Z,3.45
2019-06-10T14:19:18.902Z,3.15
2019-06-10T14:24:16.240Z,3.27
2019-06-10T14:29:15.410Z,3.20
2019-06-10T14:34:12.088Z,3.35
2019-06-10T14:39:08.120Z,3.83
2019-06-10T14:44:04.922Z,3.33
2019-06-10T14:49:02.685Z,4.08
2019-06-10T14:53:58.384Z,3.47
2019-06-10T14:58:54.098Z,19.75
2019-06-10T15:03:52.169Z,3.35
2019-06-10T15:08:47.839Z,3.60
2019-06-10T15:13:43.643Z,3.85
2019-06-10T15:18:39.443Z,5.05
2019-06-10T15:23:35.153Z,4.30
2019-06-10T15:28:31.171Z,3.25
2019-06-10T15:33:26.924Z,3.22
2019-06-10T15:38:23.341Z,3.58
2019-06-10T15:43:20.754Z,3.98
2019-06-10T15:48:18.503Z,4.05
2019-06-10T15:53:17.535Z,3.87
2019-06-10T15:58:12.934Z,3.25
2019-06-10T16:03:12.095Z,3.55
2019-06-10T16:08:07.672Z,3.72
2019-06-10T16:13:03.530Z,4.00
2019-06-10T16:17:59.486Z,3.62
2019-06-10T16:22:55.515Z,3.55
2019-06-10T16:27:54.273Z,3.50
2019-06-10T16:32:49.172Z,3.65
2019-06-10T16:37:44.927Z,3.72
2019-06-10T16:42:42.953Z,3.50
2019-06-10T16:47:38.375Z,3.52
2019-06-10T16:52:34.422Z,3.92
2019-06-10T16:57:30.318Z,3.33
2019-06-10T17:02:26.866Z,3.80
2019-06-10T17:07:22.798Z,4.12
2019-06-10T17:12:19.797Z,4.30
2019-06-10T17:17:15.683Z,4.67
2019-06-10T17:22:12.626Z,4.92
2019-06-10T17:27:08.490Z,4.75
2019-06-10T17:32:04.330Z,5.08
2019-06-10T17:37:00.047Z,5.03
2019-06-10T17:41:55.744Z,5.20
2019-06-10T17:46:52.840Z,5.50
2019-06-10T17:51:49.031Z,5.53
2019-06-10T17:56:44.938Z,6.08
2019-06-10T18:01:40.670Z,7.42
2019-06-10T18:06:36.649Z,7.85
2019-06-10T18:11:34.504Z,8.18
2019-06-10T18:16:30.354Z,7.75
2019-06-10T18:21:26.417Z,9.35
2019-06-10T18:26:23.105Z,8.50
2019-06-10T18:31:19.370Z,9.20
2019-06-10T18:36:15.176Z,8.55
2019-06-10T18:41:12.857Z,9.05
2019-06-10T18:46:08.731Z,8.45
2019-06-10T18:51:04.891Z,9.08
2019-06-10T18:56:00.601Z,10.72
2019-06-10T19:01:03.605Z,11.25
2019-06-10T19:05:53.951Z,10.58
2019-06-10T19:10:49.981Z,10.30
2019-06-10T19:15:45.774Z,11.68
2019-06-10T19:20:45.130Z,12.15
2019-06-10T19:25:41.344Z,12.53
2019-06-10T19:30:38.858Z,9.28
2019-06-10T19:35:36.667Z,9.70
2019-06-10T19:40:35.260Z,10.40
2019-06-10T19:45:32.077Z,10.35
2019-06-10T19:50:28.072Z,10.90
2019-06-10T19:55:23.797Z,11.47
2019-06-10T20:00:22.049Z,12.07
2019-06-10T20:05:18.814Z,13.27
2019-06-10T20:10:14.628Z,13.07
2019-06-10T20:15:23.414Z,12.67
2019-06-10T20:20:19.332Z,12.13
2019-06-10T20:25:15.248Z,13.10
2019-06-10T20:30:23.757Z,14.40
2019-06-10T20:35:12.387Z,13.60
2019-06-10T20:40:08.533Z,13.43
2019-06-10T20:45:05.264Z,13.53
2019-06-10T20:50:03.143Z,12.88
2019-06-10T20:54:59.233Z,12.93
2019-06-10T20:59:54.930Z,13.30
2019-06-10T21:04:53.056Z,12.97
2019-06-10T21:09:50.635Z,11.25
2019-06-10T21:14:47.239Z,12.18
2019-06-10T21:19:44.940Z,12.43
2019-06-10T21:24:42.487Z,12.10
2019-06-10T21:29:38.552Z,12.63
2019-06-10T21:34:34.274Z,11.47
2019-06-10T21:39:32.134Z,11.83
2019-06-10T21:44:27.655Z,12.47
2019-06-10T21:49:23.902Z,12.93
2019-06-10T21:54:19.777Z,14.30
2019-06-10T21:59:15.483Z,15.23
2019-06-10T22:04:13.358Z,16.23
2019-06-10T22:09:08.882Z,15.13
2019-06-10T22:14:04.700Z,14.63
2019-06-10T22:19:03.157Z,13.13
2019-06-10T22:23:57.988Z,12.73
2019-06-10T22:28:55.845Z,13.47
2019-06-10T22:33:54.289Z,12.53
2019-06-10T22:38:49.814Z,13.13
2019-06-10T22:43:45.567Z,13.37
2019-06-10T22:48:42.504Z,12.73
2019-06-10T22:53:38.390Z,12.73
2019-06-10T22:58:34.338Z,12.45
2019-06-10T23:03:30.061Z,13.23
2019-06-10T23:08:25.773Z,13.47
2019-06-10T23:13:23.153Z,13.13
2019-06-10T23:18:19.312Z,12.53
2019-06-10T23:23:15.153Z,13.48
2019-06-10T23:28:12.999Z,12.47
2019-06-10T23:33:08.795Z,13.83
2019-06-10T23:38:05.221Z,15.17
2019-06-10T23:43:03.426Z,15.67
2019-06-10T23:47:59.546Z,16.50
2019-06-10T23:53:00.170Z,15.00
2019-06-10T23:57:54.762Z,15.17
